MUHG/HOG METAR and TAF weather

Enter ICAO airport designator
Station Type Date Time Source
MUHG METAR 2020/10/29 16:50 UTC NOAA

MUHG 291650Z 09013KT 060V130 9000 SCT039 32/23 Q1013


Station Type Date Time Source
MUHG Decoded METAR 2020/10/29 16:50 UTC NOAA

Holguin Civ / Mil , Cuba (MUHG) 20-47N 076-19W
Oct 29, 2020 - 12:50 PM EDT / 2020.10.29 1650 UTC
Wind: from the E (090 degrees) at 15 MPH (13 KT) (direction variable):0
Visibility: 5 mile(s):0
Sky conditions: partly cloudy
Temperature: 89 F (32 C)
Heat index: 96.8 F (36.0 C):1
Dew Point: 73 F (23 C)
Relative Humidity: 59%
Pressure (altimeter): 29.91 in. Hg (1013 hPa)
ob: MUHG 291650Z 09013KT 060V130 9000 SCT039 32/23 Q1013
cycle: 17

Station Type Date Time Source
MUHG TAF 2020/10/29 18:03 UTC NOAA

TAF MUHG 291700Z 2918/3018 09013KT 9000 SCT020
BECMG 3003/3005 VRB03KT
BECMG 3014/3016 12012KT

Example: see airport list